Time;durP1;ratioP1;P1;durP2;ratioP2;P2;SDS_P1;SDS_P2;PMS_P1;PMS_P2;Temp;Humidity;BMP_temperature;BMP_pressure;BME280_temperature;BME280_humidity;BME280_pressure;Samples;Min_cycle;Max_cycle;Signal;HPM_P1;HPM_P2
2022/08/17 00:00:28;;;;;;;;;47.67;40.00;;;;;22.72;78.40;100389.97;110557;1264;15334;-47
2022/08/17 00:03:02;;;;;;;;;45.00;38.67;;;;;22.69;78.76;100388.00;110543;1264;14881;-48
2022/08/17 00:05:30;;;;;;;;;45.50;40.00;;;;;22.77;78.43;100386.98;110543;1264;15265;-50
2022/08/17 00:07:57;;;;;;;;;51.67;42.00;;;;;22.79;78.26;100387.79;110533;1265;14850;-48
2022/08/17 00:10:24;;;;;;;;;53.67;44.33;;;;;22.72;78.35;100388.50;110559;1264;13278;-51
2022/08/17 00:12:51;;;;;;;;;44.33;39.00;;;;;22.66;78.54;100389.25;110522;1265;15178;-48
2022/08/17 00:15:19;;;;;;;;;46.00;39.00;;;;;22.68;78.44;100392.02;110423;1264;15234;-49
2022/08/17 00:17:46;;;;;;;;;50.00;40.00;;;;;22.64;78.29;100390.70;110496;1264;14517;-48
2022/08/17 00:20:13;;;;;;;;;43.67;39.67;;;;;22.58;78.40;100394.31;110497;1265;14825;-48
2022/08/17 00:22:40;;;;;;;;;47.33;40.00;;;;;22.58;78.39;100393.59;110560;1265;13217;-48
2022/08/17 00:25:08;;;;;;;;;45.00;37.50;;;;;22.63;78.26;100395.45;110520;1264;14732;-47
2022/08/17 00:27:35;;;;;;;;;57.00;43.00;;;;;22.69;77.85;100395.99;110538;1265;14769;-48
2022/08/17 00:30:03;;;;;;;;;44.33;40.00;;;;;22.66;77.78;100398.77;110524;1264;15540;-48
2022/08/17 00:32:30;;;;;;;;;48.00;40.33;;;;;22.81;77.36;100402.11;110535;1265;14787;-47
2022/08/17 00:34:57;;;;;;;;;45.67;40.00;;;;;22.80;76.77;100396.76;110467;1264;14645;-54
2022/08/17 00:37:24;;;;;;;;;45.00;40.00;;;;;22.56;77.16;100400.63;110548;1265;13236;-49
2022/08/17 00:39:52;;;;;;;;;47.33;41.00;;;;;22.15;78.32;100403.98;110531;1263;15238;-47
2022/08/17 00:42:19;;;;;;;;;47.33;40.00;;;;;22.10;78.96;100405.25;110529;1264;15338;-47
2022/08/17 00:44:46;;;;;;;;;49.00;41.50;;;;;22.26;78.51;100402.54;110471;1264;14721;-49
2022/08/17 00:47:13;;;;;;;;;48.67;40.67;;;;;22.18;78.63;100405.15;110532;1264;17078;-51
2022/08/17 00:49:41;;;;;;;;;49.50;40.00;;;;;22.17;78.64;100400.48;110509;1264;10880;-49
2022/08/17 00:52:10;;;;;;;;;44.67;40.00;;;;;22.05;78.94;100399.58;110357;1265;13189;-48
2022/08/17 00:54:37;;;;;;;;;48.00;39.00;;;;;22.21;78.70;100400.77;110481;1265;15001;-48
2022/08/17 00:57:04;;;;;;;;;49.50;40.50;;;;;22.19;78.47;100407.39;110475;1265;14183;-47
2022/08/17 00:59:31;;;;;;;;;42.00;38.00;;;;;22.29;78.23;100405.92;110539;1265;13829;-50
2022/08/17 01:01:59;;;;;;;;;53.50;44.50;;;;;22.36;77.59;100403.27;110504;1265;18093;-51
2022/08/17 01:04:26;;;;;;;;;52.33;41.67;;;;;22.36;77.52;100400.99;110538;1264;13343;-52
2022/08/17 01:06:53;;;;;;;;;45.33;39.67;;;;;22.41;77.35;100397.77;110514;1264;14773;-48
2022/08/17 01:09:20;;;;;;;;;48.67;40.33;;;;;22.35;77.27;100392.71;110527;1265;13983;-52
2022/08/17 01:11:51;;;;;;;;;51.00;42.00;;;;;22.20;77.66;100391.26;110390;1264;13560;-45
2022/08/17 01:14:20;;;;;;;;;52.00;42.00;;;;;22.11;78.18;100394.46;110549;1264;13856;-46
2022/08/17 01:16:47;;;;;;;;;50.33;40.67;;;;;22.09;78.17;100390.93;110618;1265;13198;-43
2022/08/17 01:19:14;;;;;;;;;50.33;42.00;;;;;22.00;78.56;100386.04;110529;1264;15395;-47
2022/08/17 01:21:42;;;;;;;;;44.67;39.67;;;;;22.06;78.44;100390.63;110466;1264;15297;-48
2022/08/17 01:24:09;;;;;;;;;53.00;44.00;;;;;22.01;78.42;100394.86;110543;1264;15015;-48
2022/08/17 01:26:36;;;;;;;;;50.00;43.67;;;;;22.07;78.39;100400.30;110457;1264;14597;-47
2022/08/17 01:29:04;;;;;;;;;53.00;42.33;;;;;22.00;78.37;100398.92;110553;1264;15638;-47
2022/08/17 01:31:31;;;;;;;;;47.67;41.67;;;;;21.98;78.47;100399.40;110568;1265;13190;-47
2022/08/17 01:33:58;;;;;;;;;50.67;41.00;;;;;21.84;78.96;100399.00;110505;1264;15184;-49
2022/08/17 01:36:26;;;;;;;;;53.00;42.00;;;;;21.90;78.89;100403.14;110523;1265;15223;-47
2022/08/17 01:38:53;;;;;;;;;50.00;39.33;;;;;21.92;78.80;100407.10;110496;1264;15343;-47
2022/08/17 01:41:21;;;;;;;;;47.00;38.33;;;;;21.94;78.87;100402.85;110531;1264;13593;-48
2022/08/17 01:43:48;;;;;;;;;45.33;40.00;;;;;21.94;78.80;100403.14;110595;1264;13326;-48
2022/08/17 01:46:15;;;;;;;;;46.33;41.00;;;;;21.97;78.70;100399.69;110531;1264;23252;-49
2022/08/17 01:48:46;;;;;;;;;52.33;42.00;;;;;21.89;78.90;100401.60;110499;1264;14412;-49
2022/08/17 01:51:13;;;;;;;;;51.00;40.67;;;;;21.85;79.07;100399.89;110546;1265;14147;-47
2022/08/17 01:53:41;;;;;;;;;47.67;42.00;;;;;21.90;78.90;100403.85;110530;1264;14173;-47
2022/08/17 01:56:08;;;;;;;;;52.00;43.00;;;;;21.87;78.75;100403.35;110530;1265;14403;-49
2022/08/17 01:58:35;;;;;;;;;60.00;47.00;;;;;21.79;79.18;100402.14;110545;1263;13216;-49
2022/08/17 02:01:02;;;;;;;;;56.00;45.00;;;;;21.78;79.34;100404.71;110518;1264;14788;-49
2022/08/17 02:03:30;;;;;;;;;53.33;43.67;;;;;21.79;79.37;100405.31;110503;1264;15023;-44
2022/08/17 02:05:57;;;;;;;;;52.33;41.67;;;;;21.81;79.29;100405.92;110504;1265;14610;-48
2022/08/17 02:08:24;;;;;;;;;51.00;41.67;;;;;21.93;78.81;100406.56;110552;1265;15156;-47
2022/08/17 02:10:52;;;;;;;;;54.33;42.33;;;;;21.93;78.34;100402.45;110591;1264;13361;-48
2022/08/17 02:13:19;;;;;;;;;49.33;41.67;;;;;21.80;78.64;100404.71;110523;1264;14830;-48
2022/08/17 02:15:47;;;;;;;;;56.00;42.67;;;;;21.70;78.94;100402.98;110530;1263;15150;-48
2022/08/17 02:18:14;;;;;;;;;46.67;42.33;;;;;21.78;78.72;100398.64;110468;1264;13656;-50
2022/08/17 02:20:41;;;;;;;;;47.67;41.00;;;;;21.88;78.26;100396.98;110505;1264;14694;-46
2022/08/17 02:23:08;;;;;;;;;48.33;41.00;;;;;21.86;78.09;100398.02;110541;1264;18152;-47
2022/08/17 02:25:36;;;;;;;;;46.00;42.00;;;;;21.72;78.59;100390.91;110551;1264;14688;-49
2022/08/17 02:28:03;;;;;;;;;44.00;38.67;;;;;21.75;78.65;100389.11;110464;1265;14924;-48
2022/08/17 02:30:31;;;;;;;;;52.00;44.00;;;;;21.68;78.75;100387.97;110515;1264;15573;-47
2022/08/17 02:32:59;;;;;;;;;42.67;39.00;;;;;21.55;79.09;100388.03;110546;1264;16155;-48
2022/08/17 02:35:26;;;;;;;;;50.00;42.00;;;;;21.43;79.75;100392.90;110503;1264;13194;-49
2022/08/17 02:37:53;;;;;;;;;52.00;42.00;;;;;21.61;79.36;100386.39;110544;1265;14623;-46
2022/08/17 02:40:21;;;;;;;;;44.33;40.33;;;;;21.61;79.07;100381.34;110518;1265;14959;-44
2022/08/17 02:42:48;;;;;;;;;49.67;41.67;;;;;21.75;78.69;100384.45;110546;1265;14633;-48
2022/08/17 02:45:15;;;;;;;;;61.67;49.00;;;;;21.85;78.07;100381.88;110468;1264;14697;-47
2022/08/17 02:47:43;;;;;;;;;64.00;49.67;;;;;21.84;77.93;100383.18;110528;1265;16250;-51
2022/08/17 02:50:10;;;;;;;;;58.00;46.00;;;;;21.86;77.88;100385.26;110509;1264;15124;-48
2022/08/17 02:52:38;;;;;;;;;55.00;45.00;;;;;21.89;77.56;100388.86;110549;1265;13277;-49
2022/08/17 02:55:05;;;;;;;;;51.33;42.00;;;;;21.76;77.71;100387.66;110509;1264;15417;-51
2022/08/17 02:57:32;;;;;;;;;49.33;43.33;;;;;21.72;78.08;100389.61;110489;1264;14808;-47
2022/08/17 03:00:00;;;;;;;;;49.00;41.67;;;;;21.81;77.79;100391.02;110506;1264;14752;-49
2022/08/17 03:02:27;;;;;;;;;49.00;41.00;;;;;21.75;77.56;100392.09;110485;1265;14977;-48
2022/08/17 03:04:55;;;;;;;;;50.00;42.00;;;;;21.55;78.16;100392.09;110571;1264;13304;-48
2022/08/17 03:07:22;;;;;;;;;47.00;40.33;;;;;21.54;78.35;100393.14;110532;1264;16269;-48
2022/08/17 03:09:52;;;;;;;;;45.50;40.50;;;;;21.55;78.40;100387.65;110509;1264;15024;-49
2022/08/17 03:12:20;;;;;;;;;55.00;43.00;;;;;21.67;78.09;100389.77;110499;1264;15032;-44
2022/08/17 03:14:47;;;;;;;;;50.33;42.33;;;;;21.64;78.09;100392.12;110497;1264;13221;-48
2022/08/17 03:17:15;;;;;;;;;49.67;41.33;;;;;21.63;78.20;100394.05;110529;1264;13227;-47
2022/08/17 03:19:42;;;;;;;;;48.00;41.50;;;;;21.72;77.90;100396.50;110489;1264;13245;-50
2022/08/17 03:22:09;;;;;;;;;50.33;41.00;;;;;21.86;77.33;100394.91;110453;1264;14665;-48
2022/08/17 03:24:37;;;;;;;;;49.00;41.33;;;;;21.79;77.17;100396.17;110472;1264;14110;-45
2022/08/17 03:27:04;;;;;;;;;48.33;42.00;;;;;21.67;77.58;100396.02;110505;1264;13221;-50
2022/08/17 03:29:31;;;;;;;;;50.67;42.00;;;;;21.62;77.84;100396.13;110366;1264;15984;-47
2022/08/17 03:32:00;;;;;;;;;52.00;42.00;;;;;21.56;78.13;100402.14;110549;1264;13243;-49
2022/08/17 03:34:28;;;;;;;;;57.33;45.67;;;;;21.69;77.88;100399.02;110503;1265;18248;-49
2022/08/17 03:36:55;;;;;;;;;60.00;47.00;;;;;21.57;78.29;100398.55;110507;1264;15440;-48
2022/08/17 03:39:22;;;;;;;;;57.00;46.50;;;;;21.57;78.26;100407.65;110526;1265;14750;-47
2022/08/17 03:41:50;;;;;;;;;52.33;44.33;;;;;21.52;78.53;100410.77;110563;1264;15190;-48
2022/08/17 03:44:17;;;;;;;;;57.67;43.33;;;;;21.53;78.27;100410.83;110532;1264;12782;-48
2022/08/17 03:57:44;;;;;;;;;54.50;44.50;;;;;21.46;78.31;100429.15;110530;1265;15626;-48
2022/08/17 04:00:12;;;;;;;;;58.67;48.67;;;;;21.62;78.04;100429.99;110499;1264;15274;-48
2022/08/17 04:02:40;;;;;;;;;57.67;45.67;;;;;21.64;77.70;100431.39;110455;1264;13739;-49
2022/08/17 04:05:08;;;;;;;;;58.00;47.00;;;;;21.61;77.72;100432.58;110508;1265;15129;-50
2022/08/17 04:07:35;;;;;;;;;63.33;47.00;;;;;21.65;77.64;100431.34;110568;1265;13329;-49
2022/08/17 04:10:03;;;;;;;;;57.50;46.00;;;;;21.75;77.29;100433.25;110493;1264;15051;-46
2022/08/17 04:12:30;;;;;;;;;70.00;54.00;;;;;21.80;77.13;100433.56;110534;1264;15342;-48
2022/08/17 04:14:57;;;;;;;;;66.33;52.00;;;;;21.77;77.31;100435.67;110532;1264;14842;-47
2022/08/17 04:17:24;;;;;;;;;63.00;51.00;;;;;21.79;77.49;100439.27;110519;1264;13601;-46
2022/08/17 04:19:52;;;;;;;;;56.00;45.00;;;;;21.85;77.29;100444.01;110573;1265;11789;-48
2022/08/17 04:22:19;;;;;;;;;62.67;50.00;;;;;21.79;77.43;100442.76;110505;1264;15498;-48
2022/08/17 04:24:46;;;;;;;;;61.67;49.67;;;;;21.67;78.05;100445.84;110522;1265;15150;-48
2022/08/17 04:27:13;;;;;;;;;59.00;47.00;;;;;21.74;77.97;100443.60;110525;1265;15604;-47
2022/08/17 04:29:41;;;;;;;;;60.67;50.00;;;;;21.68;78.18;100445.45;110524;1264;14080;-51
2022/08/17 04:32:09;;;;;;;;;58.00;45.00;;;;;21.67;78.18;100446.59;110500;1265;14519;-48
2022/08/17 04:34:36;;;;;;;;;54.00;42.50;;;;;21.82;78.01;100448.17;110523;1265;10515;-48
2022/08/17 04:37:03;;;;;;;;;53.33;42.00;;;;;21.94;77.64;100453.73;110509;1264;15016;-49
2022/08/17 04:39:30;;;;;;;;;54.00;44.67;;;;;21.99;77.44;100450.09;110477;1264;14844;-47
2022/08/17 04:42:08;;;;;;;;;51.33;43.67;;;;;21.97;77.55;100447.75;110478;1264;14434;-48
2022/08/17 04:44:35;;;;;;;;;60.00;42.33;;;;;21.86;77.93;100446.61;110518;1265;15285;-48
2022/08/17 04:47:02;;;;;;;;;55.00;44.00;;;;;21.88;78.25;100446.48;110502;1264;15065;-52
2022/08/17 04:49:29;;;;;;;;;60.00;46.00;;;;;22.09;77.63;100452.04;110524;1264;18083;-49
2022/08/17 04:51:57;;;;;;;;;57.67;46.00;;;;;22.00;77.66;100449.94;110480;1265;14909;-48
2022/08/17 04:54:24;;;;;;;;;56.67;45.00;;;;;22.02;78.01;100449.25;110446;1264;18014;-48
2022/08/17 04:56:51;;;;;;;;;50.33;44.33;;;;;22.12;77.72;100447.91;110485;1265;14748;-48
2022/08/17 04:59:18;;;;;;;;;54.33;45.00;;;;;22.26;77.47;100449.79;110477;1263;15430;-49
2022/08/17 05:01:46;;;;;;;;;60.33;47.00;;;;;22.41;76.97;100455.11;110564;1264;11257;-49
2022/08/17 05:04:13;;;;;;;;;60.00;45.67;;;;;22.37;77.01;100458.39;110487;1265;15242;-49
2022/08/17 05:06:40;;;;;;;;;51.50;43.50;;;;;22.26;77.63;100454.87;110522;1265;15044;-48
2022/08/17 05:09:08;;;;;;;;;59.67;45.67;;;;;22.33;77.96;100455.42;110484;1264;14737;-48
2022/08/17 05:11:35;;;;;;;;;52.67;45.00;;;;;22.36;77.85;100456.54;110443;1264;13913;-48
2022/08/17 05:14:02;;;;;;;;;56.33;46.00;;;;;22.30;77.93;100462.52;110475;1265;15151;-51
2022/08/17 05:16:30;;;;;;;;;57.67;47.00;;;;;22.21;78.26;100468.09;109492;1264;1370112;-48
2022/08/17 05:18:58;;;;;;;;;55.00;45.00;;;;;22.27;78.32;100473.33;110497;1264;12987;-48
2022/08/17 05:21:25;;;;;;;;;55.00;44.00;;;;;22.47;77.58;100474.46;110452;1264;14889;-50
2022/08/17 05:23:53;;;;;;;;;57.00;46.00;;;;;22.46;77.32;100472.42;110479;1264;15588;-49
2022/08/17 05:26:20;;;;;;;;;56.33;45.00;;;;;22.40;77.42;100473.89;110476;1264;15570;-49
2022/08/17 05:28:47;;;;;;;;;56.00;44.33;;;;;22.29;78.01;100470.83;110482;1264;13231;-48
2022/08/17 05:31:14;;;;;;;;;56.00;44.67;;;;;22.48;77.68;100467.66;110420;1264;14463;-52
2022/08/17 05:33:42;;;;;;;;;50.67;42.33;;;;;22.58;77.32;100463.89;110421;1264;15306;-47
2022/08/17 05:36:09;;;;;;;;;54.67;44.67;;;;;22.72;76.92;100460.70;110454;1264;15223;-47
2022/08/17 05:38:36;;;;;;;;;51.33;43.00;;;;;22.77;76.68;100469.11;110479;1265;13989;-46
2022/08/17 05:41:04;;;;;;;;;53.00;44.00;;;;;22.69;76.64;100470.83;110531;1265;13976;-51
2022/08/17 05:43:31;;;;;;;;;60.67;45.67;;;;;22.63;76.88;100471.39;110522;1264;13375;-46
2022/08/17 05:45:58;;;;;;;;;65.00;50.33;;;;;22.63;76.86;100470.34;110460;1264;13377;-51
2022/08/17 05:48:25;;;;;;;;;63.67;48.67;;;;;22.71;77.04;100466.61;110402;1264;15700;-48
2022/08/17 05:50:53;;;;;;;;;52.67;44.00;;;;;22.84;76.61;100470.54;110427;1264;13337;-45
2022/08/17 05:53:20;;;;;;;;;50.33;41.67;;;;;22.90;76.49;100468.92;110441;1264;14875;-50
2022/08/17 05:55:47;;;;;;;;;57.33;43.67;;;;;23.01;76.20;100467.67;110500;1265;16759;-48
2022/08/17 05:58:15;;;;;;;;;54.00;44.00;;;;;23.11;75.85;100470.39;110507;1265;13802;-48
2022/08/17 06:00:42;;;;;;;;;53.50;41.00;;;;;23.20;75.75;100475.55;110440;1264;14919;-48
2022/08/17 06:03:09;;;;;;;;;51.00;41.67;;;;;23.28;75.55;100478.13;110511;1264;15127;-46
2022/08/17 06:05:36;;;;;;;;;51.67;39.67;;;;;23.28;76.05;100480.10;110501;1264;14600;-47
2022/08/17 06:08:04;;;;;;;;;52.00;41.00;;;;;23.42;75.60;100478.13;110542;1264;14778;-49
2022/08/17 06:10:31;;;;;;;;;50.00;42.00;;;;;23.54;75.15;100474.76;110533;1264;13335;-48
2022/08/17 06:12:58;;;;;;;;;55.33;43.67;;;;;23.65;74.99;100482.88;110363;1264;13541;-49
2022/08/17 06:15:25;;;;;;;;;53.00;42.33;;;;;23.69;74.94;100483.92;110444;1264;14046;-47
2022/08/17 06:17:53;;;;;;;;;53.00;44.00;;;;;23.74;74.96;100480.76;110448;1264;15446;-49
2022/08/17 06:20:20;;;;;;;;;56.00;44.33;;;;;23.76;74.82;100481.67;110503;1264;15100;-46
2022/08/17 06:22:47;;;;;;;;;57.33;46.33;;;;;23.77;74.72;100481.85;110373;1264;12010;-53
2022/08/17 06:25:15;;;;;;;;;48.67;41.33;;;;;23.84;74.57;100486.69;110465;1265;14387;-46
2022/08/17 06:27:42;;;;;;;;;53.67;43.67;;;;;23.94;74.38;100487.45;110483;1264;13843;-49
2022/08/17 06:30:10;;;;;;;;;46.50;39.50;;;;;24.04;74.14;100488.20;110492;1265;14968;-47
2022/08/17 06:32:37;;;;;;;;;50.33;42.67;;;;;24.10;74.17;100489.70;110504;1265;14459;-46
2022/08/17 06:35:05;;;;;;;;;47.67;41.67;;;;;24.14;74.28;100486.69;110520;1264;14378;-54
2022/08/17 06:37:33;;;;;;;;;62.00;48.67;;;;;24.21;74.30;100485.73;110509;1264;15019;-46
2022/08/17 06:40:00;;;;;;;;;63.33;49.00;;;;;24.23;74.41;100483.39;110480;1263;14084;-45
2022/08/17 06:42:28;;;;;;;;;56.33;46.00;;;;;24.23;74.71;100484.54;110490;1264;14731;-46
2022/08/17 06:44:56;;;;;;;;;55.33;44.00;;;;;24.35;74.71;100479.02;110445;1263;15782;-51
2022/08/17 06:47:23;;;;;;;;;55.33;45.33;;;;;24.40;74.65;100479.29;110504;1264;15070;-48
2022/08/17 06:49:50;;;;;;;;;47.67;41.67;;;;;24.41;74.68;100486.41;110373;1263;13211;-46
2022/08/17 06:52:17;;;;;;;;;54.50;44.00;;;;;24.48;74.68;100485.93;110456;1264;14785;-47
2022/08/17 06:54:45;;;;;;;;;54.33;43.33;;;;;24.52;74.59;100489.44;110107;1264;14946;-47
2022/08/17 06:57:13;;;;;;;;;53.50;44.50;;;;;24.57;74.52;100486.73;110322;1264;14413;-48
2022/08/17 06:59:40;;;;;;;;;57.00;44.00;;;;;24.62;74.60;100485.61;110473;1265;15583;-49
2022/08/17 07:02:08;;;;;;;;;52.33;42.67;;;;;24.70;74.64;100486.67;110506;1265;14718;-44
2022/08/17 07:04:35;;;;;;;;;53.67;43.00;;;;;24.68;74.84;100486.55;110493;1264;13218;-49
2022/08/17 07:08:00;;;;;;;;;47.33;42.00;;;;;24.73;74.81;100486.30;110408;1264;15652;-51
2022/08/17 07:09:50;;;;;;;;;47.00;40.50;;;;;24.75;74.91;100485.58;110437;1264;14847;-48
2022/08/17 07:12:17;;;;;;;;;50.33;43.00;;;;;24.81;74.85;100487.70;110478;1265;14961;-47
2022/08/17 07:14:44;;;;;;;;;54.50;42.00;;;;;24.84;74.67;100487.33;110442;1265;15016;-49
2022/08/17 07:17:12;;;;;;;;;50.00;41.00;;;;;24.85;74.50;100488.25;110428;1265;14521;-47
2022/08/17 07:19:39;;;;;;;;;48.33;40.67;;;;;24.87;74.62;100495.45;110468;1264;13271;-49
2022/08/17 07:22:07;;;;;;;;;48.00;41.33;;;;;24.93;74.53;100493.56;110481;1264;14139;-48
2022/08/17 07:24:36;;;;;;;;;54.00;42.67;;;;;25.07;74.39;100490.00;110202;1264;14723;-47
2022/08/17 07:27:04;;;;;;;;;55.00;44.00;;;;;25.15;74.16;100495.11;111451;1263;21565;-49
2022/08/17 07:29:32;;;;;;;;;47.67;40.67;;;;;25.23;73.94;100496.84;110497;1265;14696;-49
2022/08/17 07:31:59;;;;;;;;;46.33;39.00;;;;;25.15;73.86;100495.08;110396;1264;10411;-44
2022/08/17 07:34:27;;;;;;;;;45.50;39.50;;;;;25.16;73.74;100492.29;110419;1263;13906;-46
2022/08/17 07:36:55;;;;;;;;;51.00;41.33;;;;;25.17;73.72;100495.58;110497;1264;14589;-48
2022/08/17 07:39:22;;;;;;;;;48.00;39.50;;;;;25.24;73.58;100494.13;110463;1263;14955;-47
2022/08/17 07:41:49;;;;;;;;;51.00;41.67;;;;;25.25;73.61;100492.52;110486;1264;15301;-51
2022/08/17 07:44:17;;;;;;;;;43.00;39.00;;;;;25.25;73.55;100491.10;110490;1265;14134;-49
2022/08/17 07:49:29;;;;;;;;;45.00;39.00;;;;;25.40;73.56;100495.71;110462;1265;14628;-52
2022/08/17 07:51:57;;;;;;;;;49.67;41.67;;;;;25.46;73.63;100496.85;110422;1264;14017;-48
2022/08/17 07:54:24;;;;;;;;;46.67;39.67;;;;;25.44;73.78;100497.83;110387;1264;14640;-51
2022/08/17 07:56:52;;;;;;;;;51.00;39.50;;;;;25.38;73.84;100501.08;110385;1264;15160;-46
2022/08/17 07:59:19;;;;;;;;;44.67;38.67;;;;;25.34;73.84;100501.42;110386;1264;12101;-48
2022/08/17 08:01:47;;;;;;;;;44.33;39.33;;;;;25.36;73.79;100498.89;110518;1265;13657;-49
2022/08/17 08:04:14;;;;;;;;;43.00;38.00;;;;;25.36;73.81;100494.45;110490;1263;13597;-48
2022/08/17 08:06:42;;;;;;;;;44.33;39.00;;;;;25.34;73.87;100502.52;110472;1264;13384;-49
2022/08/17 08:09:09;;;;;;;;;47.00;39.67;;;;;25.25;73.83;100500.45;110440;1264;14779;-47
2022/08/17 08:11:38;;;;;;;;;41.33;37.00;;;;;25.36;73.48;100497.37;110451;1264;14367;-48
2022/08/17 08:14:05;;;;;;;;;43.67;36.33;;;;;25.34;73.20;100497.05;110521;1265;13239;-49
2022/08/17 08:16:33;;;;;;;;;40.50;36.00;;;;;25.28;73.15;100499.91;110459;1265;13251;-49
2022/08/17 08:19:00;;;;;;;;;38.00;35.00;;;;;25.34;73.04;100502.65;110484;1264;14133;-44
2022/08/17 08:21:28;;;;;;;;;46.00;38.00;;;;;25.43;72.87;100506.90;110346;1264;14808;-48
2022/08/17 08:23:56;;;;;;;;;38.00;34.33;;;;;25.51;72.71;100511.33;110407;1263;14947;-48
2022/08/17 08:26:25;;;;;;;;;44.00;38.00;;;;;25.46;72.55;100505.13;110446;1263;15174;-45
2022/08/17 08:28:53;;;;;;;;;44.00;38.33;;;;;25.41;72.58;100507.54;110434;1265;13247;-47
2022/08/17 08:31:23;;;;;;;;;52.00;42.33;;;;;25.46;72.60;100509.50;110344;1264;15174;-47
2022/08/17 08:33:53;;;;;;;;;50.33;40.67;;;;;25.44;72.61;100511.58;110367;1264;14665;-48
2022/08/17 08:36:21;;;;;;;;;51.50;42.00;;;;;25.47;72.67;100512.48;110302;1264;13176;-48
2022/08/17 08:38:49;;;;;;;;;49.00;41.50;;;;;25.48;72.58;100510.61;110460;1264;14380;-49
2022/08/17 08:41:16;;;;;;;;;53.67;43.00;;;;;25.49;72.51;100511.03;110477;1265;15085;-48
2022/08/17 08:43:44;;;;;;;;;51.67;42.00;;;;;25.44;72.50;100510.33;110512;1264;11842;-47
2022/08/17 08:46:11;;;;;;;;;52.00;41.50;;;;;25.44;72.54;100509.17;110502;1264;14842;-48
2022/08/17 08:48:38;;;;;;;;;48.00;40.67;;;;;25.49;72.39;100509.37;110461;1264;14513;-48
2022/08/17 08:51:05;;;;;;;;;51.67;42.00;;;;;25.45;72.48;100512.55;110397;1264;17075;-52
2022/08/17 08:53:33;;;;;;;;;48.67;40.67;;;;;25.45;72.51;100512.19;110412;1264;15299;-48
2022/08/17 08:56:01;;;;;;;;;48.33;39.67;;;;;25.49;72.37;100509.35;110509;1264;13242;-47
2022/08/17 08:58:28;;;;;;;;;45.67;39.67;;;;;25.50;72.27;100509.05;110394;1262;15133;-48
2022/08/17 09:00:55;;;;;;;;;43.33;37.67;;;;;25.65;72.14;100505.38;110484;1264;14872;-48
2022/08/17 09:03:22;;;;;;;;;48.00;41.00;;;;;25.64;71.92;100513.14;110462;1264;14647;-48
2022/08/17 09:05:51;;;;;;;;;52.33;41.67;;;;;25.61;72.12;100511.80;110425;1264;14813;-48
2022/08/17 09:08:18;;;;;;;;;51.33;39.00;;;;;25.61;71.96;100508.84;110455;1265;15268;-49
2022/08/17 09:10:46;;;;;;;;;51.00;41.00;;;;;25.57;72.00;100511.67;110519;1264;13330;-47
2022/08/17 09:13:13;;;;;;;;;46.33;38.33;;;;;25.54;71.93;100507.93;110469;1264;14382;-48
2022/08/17 09:15:41;;;;;;;;;48.50;41.00;;;;;25.52;71.96;100504.14;110424;1264;14186;-48
2022/08/17 09:18:08;;;;;;;;;44.00;37.33;;;;;25.51;71.88;100504.30;110476;1263;13041;-47
2022/08/17 09:20:35;;;;;;;;;42.33;38.33;;;;;25.56;71.88;100501.25;110469;1264;14544;-48
2022/08/17 09:23:05;;;;;;;;;43.00;36.67;;;;;25.59;71.61;100498.52;110547;1264;13243;-49
2022/08/17 09:25:33;;;;;;;;;40.33;36.67;;;;;25.62;71.61;100501.20;110485;1264;15711;-49
2022/08/17 09:28:02;;;;;;;;;45.50;39.00;;;;;25.60;71.48;100498.05;110482;1264;14820;-49
2022/08/17 09:30:32;;;;;;;;;44.00;37.33;;;;;25.64;71.45;100501.20;110480;1265;14476;-48
2022/08/17 09:32:59;;;;;;;;;40.00;35.00;;;;;25.58;71.36;100500.08;110502;1264;13226;-49
2022/08/17 09:35:27;;;;;;;;;44.00;38.00;;;;;25.56;71.19;100506.16;110438;1265;13148;-47
2022/08/17 09:37:54;;;;;;;;;44.33;39.00;;;;;25.55;70.96;100504.47;110418;1264;15802;-48
2022/08/17 09:40:22;;;;;;;;;42.67;37.00;;;;;25.55;70.66;100500.63;110416;1265;14857;-47
2022/08/17 09:42:49;;;;;;;;;35.00;33.67;;;;;25.61;70.37;100499.35;110497;1264;13746;-49
2022/08/17 09:45:16;;;;;;;;;39.67;35.67;;;;;25.58;70.20;100504.42;110481;1264;14269;-48
2022/08/17 09:47:44;;;;;;;;;39.67;34.00;;;;;25.55;70.12;100502.14;110502;1264;14234;-47
2022/08/17 09:50:12;;;;;;;;;36.67;33.00;;;;;25.53;70.00;100491.46;110529;1264;13208;-48
2022/08/17 09:52:39;;;;;;;;;35.00;31.00;;;;;25.61;69.78;100491.11;110522;1264;15093;-43
2022/08/17 09:55:07;;;;;;;;;34.67;33.33;;;;;25.61;69.59;100489.85;110487;1264;14082;-48
2022/08/17 09:57:35;;;;;;;;;39.00;35.00;;;;;25.65;69.64;100485.58;110482;1263;13899;-42
2022/08/17 10:00:06;;;;;;;;;36.00;35.00;;;;;25.66;69.71;100483.46;110495;1265;14310;-48
2022/08/17 10:02:34;;;;;;;;;38.33;35.00;;;;;25.70;69.36;100485.05;110460;1264;14973;-47
2022/08/17 10:05:01;;;;;;;;;35.00;31.00;;;;;25.67;69.08;100487.96;110508;1264;13174;-47
2022/08/17 10:07:29;;;;;;;;;37.33;34.00;;;;;25.77;68.55;100490.16;110361;1264;14205;-56
2022/08/17 10:09:56;;;;;;;;;35.33;32.00;;;;;25.83;67.87;100488.77;110412;1264;16746;-46
2022/08/17 10:12:23;;;;;;;;;32.50;31.50;;;;;25.75;67.83;100487.27;110496;1265;14492;-50
2022/08/17 10:14:51;;;;;;;;;32.67;31.00;;;;;25.74;67.74;100483.08;110523;1264;13800;-50
2022/08/17 10:17:18;;;;;;;;;30.33;29.33;;;;;25.73;67.53;100486.33;110507;1264;13132;-47
2022/08/17 10:19:46;;;;;;;;;36.00;31.00;;;;;25.65;67.59;100488.90;110530;1264;14661;-49
2022/08/17 10:27:43;;;;;;;;;32.00;31.00;;;;;25.58;67.77;100487.33;110488;1265;13138;-48
2022/08/17 10:30:12;;;;;;;;;32.33;29.67;;;;;25.65;67.24;100482.77;110491;1264;13102;-48
2022/08/17 10:32:40;;;;;;;;;29.00;28.67;;;;;25.70;67.16;100480.67;110508;1264;14308;-48
2022/08/17 10:35:07;;;;;;;;;28.00;28.00;;;;;25.74;66.23;100474.99;110479;1264;13116;-47
2022/08/17 10:37:34;;;;;;;;;32.00;28.00;;;;;25.66;65.57;100473.37;110532;1265;14352;-50
2022/08/17 10:40:02;;;;;;;;;30.33;28.33;;;;;25.66;65.07;100472.83;110471;1265;13223;-47
2022/08/17 10:42:29;;;;;;;;;30.33;29.00;;;;;25.71;65.05;100474.87;110471;1263;13131;-47
2022/08/17 10:44:57;;;;;;;;;30.33;30.00;;;;;25.66;65.09;100476.73;110507;1264;14835;-47
2022/08/17 10:47:25;;;;;;;;;29.33;27.33;;;;;25.63;65.00;100477.05;110490;1264;13921;-48
2022/08/17 10:49:54;;;;;;;;;29.67;27.00;;;;;25.62;64.90;100478.91;110568;1264;13063;-47
2022/08/17 10:52:22;;;;;;;;;27.00;25.00;;;;;25.63;64.95;100476.38;110484;1264;14280;-50
2022/08/17 10:54:49;;;;;;;;;29.33;27.00;;;;;25.63;64.54;100480.23;110451;1264;13997;-50
2022/08/17 10:57:16;;;;;;;;;32.00;29.00;;;;;25.64;64.49;100480.77;110490;1265;14825;-48
2022/08/17 10:59:44;;;;;;;;;29.33;27.67;;;;;25.66;64.48;100472.48;110386;1265;14474;-50
2022/08/17 11:02:11;;;;;;;;;31.67;28.00;;;;;25.64;64.36;100473.41;110433;1263;13103;-52
2022/08/17 11:04:39;;;;;;;;;28.00;25.33;;;;;25.66;64.47;100472.05;110449;1264;13211;-47
2022/08/17 11:07:06;;;;;;;;;32.00;30.00;;;;;25.67;64.44;100472.89;110503;1264;14526;-49
2022/08/17 11:09:33;;;;;;;;;25.50;24.50;;;;;25.69;64.54;100470.61;110477;1264;14781;-47
2022/08/17 11:12:05;;;;;;;;;31.67;27.33;;;;;25.81;64.60;100464.98;110453;1265;18293;-48
2022/08/17 11:14:32;;;;;;;;;36.33;30.00;;;;;25.78;64.66;100463.48;110392;1264;13859;-49
2022/08/17 11:17:00;;;;;;;;;29.00;27.33;;;;;25.74;64.76;100464.88;110318;1264;11202;-50
2022/08/17 11:19:27;;;;;;;;;29.00;28.00;;;;;25.72;64.87;100471.99;110182;1265;14992;-47
2022/08/17 11:21:54;;;;;;;;;29.67;28.00;;;;;25.80;64.62;100471.03;110377;1264;15712;-47